createdAt,value
2023-01-10T00:00:44.471Z,69.50
2023-01-10T00:03:26.534Z,68.88
2023-01-10T00:05:53.545Z,64.35
2023-01-10T00:08:23.018Z,61.33
2023-01-10T00:10:50.201Z,72.20
2023-01-10T00:13:24.061Z,70.97
2023-01-10T00:15:52.654Z,73.43
2023-01-10T00:18:20.893Z,82.60
2023-01-10T00:20:49.447Z,70.75
2023-01-10T00:23:18.493Z,73.10
2023-01-10T00:25:46.165Z,79.95
2023-01-10T00:28:19.461Z,78.35
2023-01-10T00:31:15.717Z,81.78
2023-01-10T00:33:43.081Z,77.93
2023-01-10T00:36:10.733Z,74.68
2023-01-10T00:38:38.174Z,79.75
2023-01-10T00:41:25.374Z,81.88
2023-01-10T00:46:27.480Z,84.15
2023-01-10T00:48:56.439Z,82.78
2023-01-10T00:51:23.526Z,82.60
2023-01-10T00:53:50.828Z,80.78
2023-01-10T00:56:17.833Z,77.32
2023-01-10T00:58:45.279Z,89.18
2023-01-10T01:01:12.398Z,96.80
2023-01-10T01:03:39.764Z,82.43
2023-01-10T01:06:07.966Z,82.47
2023-01-10T01:08:35.612Z,84.82
2023-01-10T01:11:02.763Z,84.10
2023-01-10T01:13:30.233Z,79.57
2023-01-10T01:16:00.995Z,78.45
2023-01-10T01:18:28.535Z,80.82
2023-01-10T01:20:57.646Z,88.90
2023-01-10T01:23:25.321Z,79.03
2023-01-10T01:25:53.655Z,82.47
2023-01-10T01:28:24.310Z,85.47
2023-01-10T01:30:51.509Z,85.20
2023-01-10T01:33:19.825Z,79.13
2023-01-10T01:35:48.589Z,79.28
2023-01-10T01:38:17.304Z,82.10
2023-01-10T01:40:45.090Z,81.15
2023-01-10T01:43:22.129Z,78.93
2023-01-10T01:45:49.403Z,76.13
2023-01-10T01:48:29.042Z,77.63
2023-01-10T01:51:05.760Z,74.15
2023-01-10T01:56:21.275Z,76.43
2023-01-10T01:58:54.636Z,68.95
2023-01-10T02:01:23.081Z,66.00
2023-01-10T02:03:56.309Z,68.97
2023-01-10T02:06:24.917Z,65.45
2023-01-10T02:09:32.807Z,69.82
2023-01-10T02:12:01.334Z,63.07
2023-01-10T02:14:29.628Z,67.00
2023-01-10T02:16:57.796Z,64.22
2023-01-10T02:19:35.176Z,67.07
2023-01-10T02:22:05.284Z,65.65
2023-01-10T02:25:00.088Z,66.53
2023-01-10T02:27:37.403Z,70.25
2023-01-10T02:30:52.664Z,67.68
2023-01-10T02:33:49.230Z,68.80
2023-01-10T02:36:36.745Z,66.40
2023-01-10T02:39:18.384Z,70.40
2023-01-10T02:41:58.704Z,68.75
2023-01-10T02:44:38.234Z,70.45
2023-01-10T02:47:08.112Z,71.65
2023-01-10T02:49:46.516Z,66.97
2023-01-10T02:52:28.121Z,73.55
2023-01-10T02:54:59.947Z,63.35
2023-01-10T02:57:50.689Z,64.00
2023-01-10T03:00:34.034Z,56.83
2023-01-10T03:03:10.417Z,66.53
2023-01-10T03:06:07.864Z,62.83
2023-01-10T03:11:08.817Z,71.18
2023-01-10T03:13:42.123Z,66.78
2023-01-10T03:16:17.342Z,68.53
2023-01-10T03:19:10.819Z,70.18
2023-01-10T03:21:41.043Z,68.00
2023-01-10T03:24:15.378Z,68.93
2023-01-10T03:27:07.185Z,67.97
2023-01-10T03:29:54.151Z,67.88
2023-01-10T03:32:25.092Z,69.40
2023-01-10T03:34:54.709Z,67.78
2023-01-10T03:37:55.427Z,70.65
2023-01-10T03:40:47.701Z,67.93
2023-01-10T03:43:45.442Z,66.85
2023-01-10T03:48:51.519Z,61.90
2023-01-10T03:51:19.585Z,72.07
2023-01-10T03:53:46.703Z,72.10
2023-01-10T03:56:14.971Z,68.40
2023-01-10T03:58:42.222Z,70.93
2023-01-10T04:01:09.720Z,67.22
2023-01-10T04:03:36.825Z,72.07
2023-01-10T04:06:04.408Z,80.00
2023-01-10T04:08:31.471Z,73.20
2023-01-10T04:10:58.820Z,71.10
2023-01-10T04:13:25.909Z,71.72
2023-01-10T04:15:53.329Z,71.88
2023-01-10T04:18:20.716Z,75.20
2023-01-10T04:20:48.008Z,71.28
2023-01-10T04:23:15.219Z,73.45
2023-01-10T04:25:46.258Z,72.40
2023-01-10T04:28:13.298Z,83.57
2023-01-10T04:30:40.636Z,73.95
2023-01-10T04:33:07.635Z,73.80
2023-01-10T04:35:34.990Z,77.20
2023-01-10T04:38:02.007Z,79.55
2023-01-10T04:40:29.619Z,76.85
2023-01-10T04:42:56.694Z,71.07
2023-01-10T04:45:24.257Z,82.10
2023-01-10T04:47:52.189Z,80.65
2023-01-10T04:50:19.515Z,72.28
2023-01-10T04:52:46.596Z,76.63
2023-01-10T04:55:14.067Z,75.88
2023-01-10T04:57:41.072Z,77.82
2023-01-10T05:00:10.053Z,78.45
2023-01-10T05:02:42.746Z,73.80
2023-01-10T05:05:15.278Z,76.60
2023-01-10T05:07:46.005Z,80.78
2023-01-10T05:10:13.511Z,79.25
2023-01-10T05:12:40.618Z,77.88
2023-01-10T05:15:08.889Z,84.15
2023-01-10T05:17:35.885Z,75.90
2023-01-10T05:20:03.451Z,71.82
2023-01-10T05:22:30.564Z,81.45
2023-01-10T05:24:58.061Z,73.15
2023-01-10T05:27:25.170Z,68.95
2023-01-10T05:29:52.692Z,76.43
2023-01-10T05:32:19.789Z,70.53
2023-01-10T05:34:47.105Z,70.30
2023-01-10T05:37:14.185Z,70.30
2023-01-10T05:39:43.160Z,67.53
2023-01-10T05:42:10.148Z,61.95
2023-01-10T05:44:37.470Z,60.10
2023-01-10T05:47:04.558Z,61.35
2023-01-10T05:49:34.086Z,63.10
2023-01-10T05:52:01.347Z,58.78
2023-01-10T05:54:29.800Z,60.58
2023-01-10T05:56:57.535Z,64.78
2023-01-10T05:59:28.599Z,56.95
2023-01-10T06:01:56.171Z,58.78
2023-01-10T06:04:23.592Z,60.10
2023-01-10T06:06:50.690Z,60.63
2023-01-10T06:09:18.110Z,58.53
2023-01-10T06:11:45.094Z,64.70
2023-01-10T06:14:12.473Z,61.83
2023-01-10T06:16:39.507Z,66.35
2023-01-10T06:19:06.777Z,63.20
2023-01-10T06:21:33.933Z,58.20
2023-01-10T06:24:01.302Z,66.45
2023-01-10T06:26:31.138Z,59.95
2023-01-10T06:28:59.679Z,58.13
2023-01-10T06:31:27.550Z,59.08
2023-01-10T06:33:54.915Z,59.47
2023-01-10T06:36:22.032Z,57.97
2023-01-10T06:38:49.453Z,67.47
2023-01-10T06:41:16.577Z,57.78
2023-01-10T06:43:46.475Z,55.53
2023-01-10T06:46:17.460Z,67.70
2023-01-10T06:48:45.707Z,61.05
2023-01-10T06:51:14.473Z,59.78
2023-01-10T06:53:42.566Z,64.20
2023-01-10T06:56:10.433Z,60.70
2023-01-10T06:58:38.905Z,67.65
2023-01-10T07:01:08.050Z,61.00
2023-01-10T07:03:35.620Z,64.03
2023-01-10T07:06:03.487Z,58.83
2023-01-10T07:08:30.812Z,62.63
2023-01-10T07:10:58.851Z,59.20
2023-01-10T07:13:26.251Z,54.35
2023-01-10T07:16:00.903Z,53.00
2023-01-10T07:18:28.553Z,55.30
2023-01-10T07:20:55.678Z,56.97
2023-01-10T07:23:22.984Z,49.40
2023-01-10T07:25:50.313Z,59.20
2023-01-10T07:28:17.707Z,59.10
2023-01-10T07:30:45.002Z,56.92
2023-01-10T07:33:12.380Z,55.13
2023-01-10T07:35:39.673Z,55.65
2023-01-10T07:38:07.421Z,60.40
2023-01-10T07:40:34.598Z,54.60
2023-01-10T07:43:03.058Z,56.10
2023-01-10T07:45:31.224Z,43.33
2023-01-10T07:47:59.748Z,47.85
2023-01-10T07:50:28.772Z,44.58
2023-01-10T07:52:56.801Z,43.55
2023-01-10T07:55:24.029Z,46.15
2023-01-10T07:57:51.911Z,42.10
2023-01-10T08:00:19.656Z,43.60
2023-01-10T08:02:47.564Z,43.55
2023-01-10T08:05:15.365Z,43.22
2023-01-10T08:07:42.729Z,48.42
2023-01-10T08:10:10.431Z,45.83
2023-01-10T08:12:38.025Z,40.75
2023-01-10T08:15:05.742Z,42.60
2023-01-10T08:17:34.583Z,44.55
2023-01-10T08:20:01.980Z,47.90
2023-01-10T08:22:29.584Z,46.88
2023-01-10T08:24:56.639Z,41.03
2023-01-10T08:27:24.243Z,46.50
2023-01-10T08:29:51.328Z,51.97
2023-01-10T08:32:18.832Z,49.72
2023-01-10T08:34:45.991Z,46.60
2023-01-10T08:37:14.427Z,44.95
2023-01-10T08:39:41.621Z,47.03
2023-01-10T08:42:09.781Z,50.55
2023-01-10T08:44:37.008Z,48.33
2023-01-10T08:47:04.498Z,44.90
2023-01-10T08:49:31.619Z,59.83
2023-01-10T08:51:59.032Z,52.67
2023-01-10T08:54:26.149Z,80.38
2023-01-10T08:56:53.443Z,73.95
2023-01-10T08:59:20.620Z,66.57
2023-01-10T09:01:47.972Z,51.92
2023-01-10T09:04:15.084Z,49.20
2023-01-10T09:06:42.840Z,51.80
2023-01-10T09:09:10.431Z,47.00
2023-01-10T09:11:37.729Z,50.00
2023-01-10T09:14:06.849Z,51.75
2023-01-10T09:16:34.259Z,54.47
2023-01-10T09:19:01.414Z,49.13
2023-01-10T09:21:29.355Z,56.55
2023-01-10T09:23:56.359Z,53.38
2023-01-10T09:26:23.943Z,49.17
2023-01-10T09:28:51.004Z,50.30
2023-01-10T09:31:18.345Z,61.42
2023-01-10T09:33:47.737Z,44.92
2023-01-10T09:36:15.934Z,49.58
2023-01-10T09:38:44.061Z,48.30
2023-01-10T09:41:35.240Z,45.97
2023-01-10T09:44:05.227Z,47.55
2023-01-10T09:47:03.977Z,52.55
2023-01-10T09:49:42.063Z,45.92
2023-01-10T09:52:27.979Z,49.00
2023-01-10T09:54:57.539Z,50.33
2023-01-10T09:57:25.793Z,48.00
2023-01-10T09:59:54.047Z,40.20
2023-01-10T10:02:30.710Z,48.25
2023-01-10T10:05:00.887Z,45.33
2023-01-10T10:07:28.307Z,56.03
2023-01-10T10:09:55.465Z,44.33
2023-01-10T10:12:40.875Z,45.58
2023-01-10T10:15:24.404Z,38.90
2023-01-10T10:18:06.564Z,35.78
2023-01-10T10:21:08.210Z,44.05
2023-01-10T10:23:35.498Z,41.75
2023-01-10T10:26:06.177Z,37.33
2023-01-10T10:29:06.255Z,41.53
2023-01-10T10:32:07.130Z,42.72
2023-01-10T10:34:37.501Z,62.80
2023-01-10T10:37:24.106Z,41.55
2023-01-10T10:39:53.821Z,37.72
2023-01-10T10:42:22.040Z,36.75
2023-01-10T10:45:35.329Z,38.88
2023-01-10T10:48:31.427Z,36.08
2023-01-10T10:51:09.704Z,37.35
2023-01-10T10:53:37.108Z,36.38
2023-01-10T10:56:07.553Z,34.85
2023-01-10T10:58:34.791Z,38.75
2023-01-10T11:01:02.794Z,33.75
2023-01-10T11:03:50.125Z,37.17
2023-01-10T11:06:20.278Z,35.50
2023-01-10T11:08:50.119Z,42.85
2023-01-10T11:11:35.921Z,37.95
2023-01-10T11:14:05.794Z,28.67
2023-01-10T11:16:40.323Z,30.08
2023-01-10T11:19:25.466Z,32.10
2023-01-10T11:21:58.460Z,33.72
2023-01-10T11:25:01.238Z,30.45
2023-01-10T11:27:34.910Z,28.95
2023-01-10T11:30:06.849Z,36.72
2023-01-10T11:32:51.897Z,32.75
2023-01-10T11:35:28.574Z,37.15
2023-01-10T11:41:03.121Z,36.38
2023-01-10T11:43:34.990Z,35.58
2023-01-10T11:46:13.258Z,35.15
2023-01-10T11:49:06.298Z,30.42
2023-01-10T11:51:40.475Z,27.20
2023-01-10T11:54:13.210Z,34.08
2023-01-10T11:56:41.565Z,31.63
2023-01-10T11:59:16.090Z,33.38
2023-01-10T12:01:45.393Z,28.77
2023-01-10T12:04:17.260Z,29.08
2023-01-10T12:06:53.518Z,28.60
2023-01-10T12:09:43.449Z,26.52
2023-01-10T12:12:25.541Z,27.10
2023-01-10T12:14:57.961Z,32.88
2023-01-10T12:17:29.406Z,25.88
2023-01-10T12:20:00.637Z,25.67
2023-01-10T12:22:44.553Z,28.42
2023-01-10T12:25:29.917Z,46.38
2023-01-10T12:27:58.814Z,35.95
2023-01-10T12:30:36.764Z,40.50
2023-01-10T12:33:11.338Z,22.80
2023-01-10T12:35:43.150Z,24.48
2023-01-10T12:38:48.530Z,35.53
2023-01-10T12:41:49.505Z,26.73
2023-01-10T12:44:22.584Z,25.23
2023-01-10T12:47:07.713Z,23.10
2023-01-10T12:49:43.126Z,26.63
2023-01-10T12:52:36.211Z,25.65
2023-01-10T12:55:04.402Z,25.65
2023-01-10T12:57:38.230Z,23.23
2023-01-10T13:00:08.150Z,26.38
2023-01-10T13:02:45.437Z,35.80
2023-01-10T13:07:48.541Z,25.60
2023-01-10T13:10:22.745Z,25.48
2023-01-10T13:13:26.440Z,23.88
2023-01-10T13:16:10.410Z,21.25
2023-01-10T13:18:37.856Z,24.15
2023-01-10T13:21:08.780Z,23.10
2023-01-10T13:24:02.277Z,25.27
2023-01-10T13:26:58.509Z,23.95
2023-01-10T13:29:38.849Z,22.30
2023-01-10T13:32:29.597Z,24.30
2023-01-10T13:35:19.364Z,20.20
2023-01-10T13:37:54.223Z,23.35
2023-01-10T13:40:28.420Z,20.65
2023-01-10T13:43:37.623Z,20.38
2023-01-10T13:46:17.413Z,23.80
2023-01-10T13:49:10.675Z,23.38
2023-01-10T13:51:39.690Z,21.63
2023-01-10T13:54:15.893Z,23.60
2023-01-10T13:56:45.022Z,25.23
2023-01-10T13:59:52.008Z,22.30
2023-01-10T14:02:29.030Z,23.30
2023-01-10T14:10:05.018Z,20.88
2023-01-10T14:12:51.390Z,24.05
2023-01-10T14:15:23.604Z,26.23
2023-01-10T14:18:07.975Z,23.00
2023-01-10T14:20:36.846Z,30.95
2023-01-10T14:23:04.148Z,24.95
2023-01-10T14:25:37.258Z,37.13
2023-01-10T14:28:15.399Z,33.67
2023-01-10T14:30:42.643Z,32.80
2023-01-10T14:33:09.939Z,33.70
2023-01-10T14:35:42.620Z,37.40
2023-01-10T14:38:26.121Z,37.03
2023-01-10T14:40:59.560Z,38.85
2023-01-10T14:43:33.159Z,39.38
2023-01-10T14:46:11.373Z,34.42
2023-01-10T14:48:50.978Z,33.55
2023-01-10T14:51:24.508Z,27.38
2023-01-10T14:54:03.923Z,27.20
2023-01-10T14:56:39.680Z,28.10
2023-01-10T14:59:29.034Z,27.90
2023-01-10T15:01:59.183Z,25.83
2023-01-10T15:04:33.079Z,24.15
2023-01-10T15:07:03.162Z,31.65
2023-01-10T15:09:32.392Z,31.65
2023-01-10T15:12:02.538Z,35.28
2023-01-10T15:14:32.023Z,33.20
2023-01-10T15:17:05.517Z,35.35
2023-01-10T15:19:38.417Z,35.83
2023-01-10T15:22:18.541Z,29.70
2023-01-10T15:25:08.197Z,29.85
2023-01-10T15:27:37.618Z,31.23
2023-01-10T15:30:09.073Z,26.00
2023-01-10T15:32:39.472Z,30.40
2023-01-10T15:35:10.931Z,29.63
2023-01-10T15:37:41.004Z,33.10
2023-01-10T15:40:21.849Z,28.92
2023-01-10T15:42:48.984Z,34.40
2023-01-10T15:45:37.536Z,32.15
2023-01-10T15:48:05.498Z,44.08
2023-01-10T15:50:38.801Z,32.63
2023-01-10T15:53:10.427Z,34.08
2023-01-10T15:55:43.429Z,31.27
2023-01-10T15:58:21.138Z,33.60
2023-01-10T16:00:50.943Z,31.67
2023-01-10T16:03:26.599Z,37.88
2023-01-10T16:05:58.794Z,25.55
2023-01-10T16:08:28.986Z,38.97
2023-01-10T16:10:59.860Z,38.83
2023-01-10T16:13:27.851Z,40.40
2023-01-10T16:15:56.585Z,46.63
2023-01-10T16:18:23.857Z,43.05
2023-01-10T16:20:53.816Z,38.17
2023-01-10T16:23:24.491Z,38.22
2023-01-10T16:25:54.778Z,39.40
2023-01-10T16:28:22.926Z,44.13
2023-01-10T16:30:50.315Z,41.92
2023-01-10T16:33:24.246Z,34.97
2023-01-10T16:35:56.916Z,43.83
2023-01-10T16:38:25.493Z,61.92
2023-01-10T16:40:56.986Z,48.10
2023-01-10T16:43:26.967Z,45.65
2023-01-10T16:46:01.615Z,45.53
2023-01-10T16:48:30.733Z,54.22
2023-01-10T16:51:18.508Z,52.78
2023-01-10T16:53:46.146Z,48.42
2023-01-10T16:56:16.199Z,53.28
2023-01-10T16:58:43.511Z,56.22
2023-01-10T17:01:19.877Z,65.85
2023-01-10T17:03:47.504Z,73.68
2023-01-10T17:06:15.780Z,71.80
2023-01-10T17:08:44.033Z,72.65
2023-01-10T17:11:16.313Z,59.85
2023-01-10T17:13:45.254Z,62.65
2023-01-10T17:16:13.160Z,59.63
2023-01-10T17:18:40.404Z,52.08
2023-01-10T17:21:14.851Z,51.10
2023-01-10T17:23:42.449Z,42.88
2023-01-10T17:26:11.722Z,41.47
2023-01-10T17:28:39.469Z,42.67
2023-01-10T17:31:07.901Z,44.53
2023-01-10T17:33:35.412Z,43.22
2023-01-10T17:36:03.049Z,52.85
2023-01-10T17:38:30.959Z,47.78
2023-01-10T17:41:02.846Z,57.33
2023-01-10T17:43:30.987Z,55.28
2023-01-10T17:46:01.273Z,55.17
2023-01-10T17:48:28.486Z,54.33
2023-01-10T17:50:58.403Z,47.75
2023-01-10T17:53:25.890Z,50.00
2023-01-10T17:55:53.889Z,49.45
2023-01-10T17:58:21.948Z,49.38
2023-01-10T18:00:49.636Z,53.35
2023-01-10T18:03:17.307Z,48.85
2023-01-10T18:06:05.726Z,52.72
2023-01-10T18:08:35.282Z,55.20
2023-01-10T18:11:02.839Z,56.40
2023-01-10T18:13:31.243Z,52.92
2023-01-10T18:16:00.194Z,59.10
2023-01-10T18:18:28.071Z,66.50
2023-01-10T18:20:58.160Z,68.45
2023-01-10T18:23:26.738Z,63.30
2023-01-10T18:26:02.707Z,73.88
2023-01-10T18:28:42.495Z,63.92
2023-01-10T18:31:14.006Z,71.07
2023-01-10T18:33:41.602Z,74.13
2023-01-10T18:36:14.739Z,72.30
2023-01-10T18:38:42.555Z,63.83
2023-01-10T18:41:09.953Z,168.48
2023-01-10T18:43:37.050Z,65.35
2023-01-10T18:46:26.057Z,70.03
2023-01-10T18:48:53.393Z,68.28
2023-01-10T18:51:22.647Z,76.38
2023-01-10T18:53:50.050Z,63.20
2023-01-10T18:56:17.456Z,63.22
2023-01-10T18:58:44.499Z,62.08
2023-01-10T19:01:18.227Z,58.88
2023-01-10T19:03:46.160Z,55.72
2023-01-10T19:06:16.461Z,54.65
2023-01-10T19:08:45.182Z,53.80
2023-01-10T19:11:15.892Z,58.47
2023-01-10T19:13:44.554Z,56.33
2023-01-10T19:16:21.407Z,53.38
2023-01-10T19:18:51.030Z,53.35
2023-01-10T19:21:19.051Z,51.42
2023-01-10T19:23:47.874Z,58.50
2023-01-10T19:26:15.955Z,60.25
2023-01-10T19:28:44.377Z,59.22
2023-01-10T19:31:21.820Z,55.33
2023-01-10T19:33:50.627Z,52.42
2023-01-10T19:36:19.620Z,51.53
2023-01-10T19:38:46.746Z,57.33
2023-01-10T19:41:14.493Z,55.75
2023-01-10T19:43:41.643Z,53.30
2023-01-10T19:46:13.121Z,64.35
2023-01-10T19:48:40.851Z,69.28
2023-01-10T19:51:13.008Z,60.20
2023-01-10T19:53:46.419Z,69.63
2023-01-10T19:56:23.042Z,72.60
2023-01-10T19:58:51.088Z,65.80
2023-01-10T20:01:24.089Z,69.53
2023-01-10T20:03:52.258Z,62.13
2023-01-10T20:06:22.509Z,66.63
2023-01-10T20:08:49.768Z,65.55
2023-01-10T20:11:18.040Z,70.53
2023-01-10T20:13:45.594Z,65.50
2023-01-10T20:16:15.601Z,63.13
2023-01-10T20:18:43.701Z,64.00
2023-01-10T20:21:13.126Z,70.70
2023-01-10T20:23:41.233Z,59.85
2023-01-10T20:26:21.223Z,66.72
2023-01-10T20:28:50.417Z,71.30
2023-01-10T20:31:23.959Z,63.63
2023-01-10T20:33:51.541Z,67.00
2023-01-10T20:36:21.105Z,63.75
2023-01-10T20:38:48.895Z,66.93
2023-01-10T20:41:22.567Z,69.70
2023-01-10T20:43:49.874Z,71.05
2023-01-10T20:46:29.186Z,66.32
2023-01-10T20:48:56.888Z,308.90
2023-01-10T20:51:29.994Z,66.38
2023-01-10T20:53:57.141Z,60.72
2023-01-10T20:56:26.498Z,66.18
2023-01-10T20:58:54.736Z,63.45
2023-01-10T21:01:33.459Z,64.38
2023-01-10T21:04:02.596Z,69.10
2023-01-10T21:06:30.013Z,59.25
2023-01-10T21:08:57.237Z,59.95
2023-01-10T21:11:24.707Z,70.07
2023-01-10T21:13:52.048Z,66.75
2023-01-10T21:16:20.793Z,61.67
2023-01-10T21:18:48.500Z,60.65
2023-01-10T21:21:19.445Z,64.28
2023-01-10T21:23:46.664Z,70.38
2023-01-10T21:26:15.131Z,69.25
2023-01-10T21:28:46.779Z,65.28
2023-01-10T21:31:20.315Z,71.45
2023-01-10T21:33:49.102Z,69.70
2023-01-10T21:36:17.504Z,68.13
2023-01-10T21:38:45.208Z,68.78
2023-01-10T21:41:40.228Z,70.50
2023-01-10T21:44:08.336Z,73.25
2023-01-10T21:46:36.416Z,74.63
2023-01-10T21:49:04.223Z,75.70
2023-01-10T21:51:31.623Z,81.68
2023-01-10T21:53:59.242Z,74.32
2023-01-10T21:56:26.826Z,78.70
2023-01-10T21:58:54.104Z,73.30
2023-01-10T22:01:21.832Z,80.55
2023-01-10T22:03:49.680Z,93.15
2023-01-10T22:06:17.035Z,85.30
2023-01-10T22:08:44.245Z,81.53
2023-01-10T22:11:11.869Z,97.22
2023-01-10T22:13:39.284Z,76.95
2023-01-10T22:16:07.205Z,78.45
2023-01-10T22:18:34.448Z,78.53
2023-01-10T22:21:01.815Z,75.00
2023-01-10T22:23:30.783Z,79.88
2023-01-10T22:26:02.752Z,83.40
2023-01-10T22:28:30.432Z,76.55
2023-01-10T22:30:58.680Z,77.70
2023-01-10T22:33:29.632Z,67.72
2023-01-10T22:35:57.115Z,73.38
2023-01-10T22:38:24.335Z,95.22
2023-01-10T22:40:51.856Z,111.63
2023-01-10T22:43:18.852Z,102.30
2023-01-10T22:45:46.300Z,92.78
2023-01-10T22:48:13.378Z,81.65
2023-01-10T22:50:48.890Z,76.28
2023-01-10T22:53:16.001Z,73.72
2023-01-10T22:55:43.589Z,76.03
2023-01-10T22:58:10.653Z,67.13
2023-01-10T23:00:37.992Z,67.80
2023-01-10T23:03:05.059Z,70.00
2023-01-10T23:05:32.375Z,68.00
2023-01-10T23:07:59.427Z,69.93
2023-01-10T23:10:30.672Z,77.43
2023-01-10T23:12:58.587Z,76.40
2023-01-10T23:15:26.190Z,71.07
2023-01-10T23:17:53.274Z,79.55
2023-01-10T23:20:21.119Z,86.07
2023-01-10T23:22:48.225Z,82.65
2023-01-10T23:25:15.710Z,108.55
2023-01-10T23:27:42.722Z,116.45
2023-01-10T23:30:10.892Z,102.15
2023-01-10T23:32:37.963Z,94.45
2023-01-10T23:35:05.638Z,98.28
2023-01-10T23:37:33.470Z,114.82
2023-01-10T23:40:01.215Z,149.07
2023-01-10T23:42:28.222Z,200.60
2023-01-10T23:44:55.506Z,161.63
2023-01-10T23:47:22.568Z,185.98
2023-01-10T23:49:50.089Z,127.50
2023-01-10T23:52:17.215Z,183.13
2023-01-10T23:54:44.534Z,179.02
2023-01-10T23:57:11.690Z,231.05
2023-01-10T23:59:39.253Z,93.35
